Terminal Aerodrome Forecast
Issued by NWS Twin Cities, MN

Home | Current Version | Previous Version | Graphics & Text | Print | Product List | Glossary On
Versions: 1 2 3 4 5 6 7 8 9 10 11 12 13 14 15 16 17 18 19 20 21 22 23 24 25 26
000
FTUS43 KMPX 200500
TAFMSP
TAF
KMSP 200527Z 2006/2112 19005KT P6SM SCT100 BKN250
     FM200800 24005KT 6SM BR FEW030 BKN250
     FM201300 31010KT P6SM SCT035 BKN250
     FM202300 29012G18KT P6SM BKN045 OVC090
      TEMPO 2023/2101 2SM TSRA OVC030CB
     FM210100 30009KT P6SM SCT050 OVC100=

USA.gov is the U.S. government's official web portal to all federal, state and local government web resources and services.